createdAt,value
2018-06-15T00:01:40.349Z,14.90
2018-06-15T00:04:11.563Z,14.87
2018-06-15T00:06:47.142Z,14.82
2018-06-15T00:09:23.237Z,14.82
2018-06-15T00:11:56.408Z,14.77
2018-06-15T00:17:04.923Z,14.71
2018-06-15T00:19:35.601Z,14.74
2018-06-15T00:22:09.179Z,14.75
2018-06-15T00:24:43.513Z,14.77
2018-06-15T00:27:16.057Z,14.78
2018-06-15T00:29:47.802Z,14.80
2018-06-15T00:32:23.363Z,14.85
2018-06-15T00:35:00.173Z,14.86
2018-06-15T00:37:32.750Z,14.87
2018-06-15T00:40:06.976Z,14.90
2018-06-15T00:42:39.761Z,14.92
2018-06-15T00:45:15.085Z,14.91
2018-06-15T00:47:48.059Z,14.91
2018-06-15T00:50:22.971Z,14.90
2018-06-15T00:52:53.585Z,14.88
2018-06-15T00:55:28.015Z,14.88
2018-06-15T00:58:04.406Z,14.87
2018-06-15T01:00:36.798Z,14.84
2018-06-15T01:03:08.128Z,14.86
2018-06-15T01:05:36.950Z,14.86
2018-06-15T01:08:05.957Z,14.87
2018-06-15T01:10:34.890Z,14.86
2018-06-15T01:13:05.348Z,14.87
2018-06-15T01:15:40.723Z,14.89
2018-06-15T01:18:15.551Z,14.87
2018-06-15T01:20:47.877Z,14.87
2018-06-15T01:23:21.068Z,14.82
2018-06-15T01:25:52.199Z,14.83
2018-06-15T01:28:40.184Z,14.78
2018-06-15T01:31:13.264Z,14.77
2018-06-15T01:33:46.229Z,14.72
2018-06-15T01:36:16.573Z,14.73
2018-06-15T01:38:51.942Z,14.67
2018-06-15T01:41:24.560Z,14.64
2018-06-15T01:43:55.850Z,14.59
2018-06-15T01:46:29.264Z,14.57
2018-06-15T01:49:01.060Z,14.54
2018-06-15T01:51:32.485Z,14.53
2018-06-15T01:54:04.268Z,14.49
2018-06-15T01:56:36.976Z,14.47
2018-06-15T01:59:07.462Z,14.48
2018-06-15T02:01:37.742Z,14.48
2018-06-15T02:04:15.340Z,14.46
2018-06-15T02:06:46.892Z,14.40
2018-06-15T02:09:20.258Z,14.43
2018-06-15T02:11:52.348Z,14.43
2018-06-15T02:14:24.204Z,14.37
2018-06-15T02:16:53.058Z,14.37
2018-06-15T02:19:21.842Z,14.42
2018-06-15T02:21:50.754Z,14.42
2018-06-15T02:24:20.692Z,14.43
2018-06-15T02:26:52.039Z,14.44
2018-06-15T02:29:27.085Z,14.40
2018-06-15T02:31:57.093Z,14.44
2018-06-15T02:34:27.523Z,14.44
2018-06-15T02:37:03.502Z,14.42
2018-06-15T02:39:39.027Z,14.40
2018-06-15T02:42:12.124Z,14.37
2018-06-15T02:44:41.005Z,14.42
2018-06-15T02:47:09.815Z,14.41
2018-06-15T02:49:38.729Z,14.38
2018-06-15T02:52:08.088Z,14.38
2018-06-15T02:54:40.127Z,14.38
2018-06-15T02:57:16.732Z,14.36
2018-06-15T02:59:49.668Z,14.34
2018-06-15T03:02:24.232Z,14.35
2018-06-15T03:04:56.976Z,14.34
2018-06-15T03:10:03.098Z,14.32
2018-06-15T03:12:31.882Z,14.28
2018-06-15T03:15:00.819Z,14.25
2018-06-15T03:17:32.225Z,14.25
2018-06-15T03:20:04.400Z,14.24
2018-06-15T03:22:36.426Z,14.24
2018-06-15T03:25:08.659Z,14.18
2018-06-15T03:27:37.675Z,14.19
2018-06-15T03:30:06.675Z,14.22
2018-06-15T03:32:35.497Z,14.19
2018-06-15T03:35:04.892Z,14.17
2018-06-15T03:37:36.087Z,14.13
2018-06-15T03:40:07.503Z,14.14
2018-06-15T03:42:40.474Z,14.13
2018-06-15T03:45:09.396Z,14.12
2018-06-15T03:47:38.330Z,14.10
2018-06-15T03:50:07.146Z,14.08
2018-06-15T03:52:36.279Z,14.06
2018-06-15T03:55:09.164Z,14.00
2018-06-15T03:57:39.388Z,14.03
2018-06-15T04:00:10.190Z,14.00
2018-06-15T04:02:40.871Z,13.99
2018-06-15T04:05:09.726Z,14.00
2018-06-15T04:07:38.697Z,14.02
2018-06-15T04:10:07.598Z,14.05
2018-06-15T04:12:40.291Z,14.04
2018-06-15T04:15:11.691Z,14.06
2018-06-15T04:17:43.111Z,14.07
2018-06-15T04:20:15.254Z,14.08
2018-06-15T04:22:44.162Z,14.08
2018-06-15T04:25:13.005Z,14.10
2018-06-15T04:27:41.918Z,14.11
2018-06-15T04:30:13.039Z,14.12
2018-06-15T04:32:43.410Z,14.11
2018-06-15T04:35:13.529Z,14.12
2018-06-15T04:37:47.343Z,14.12
2018-06-15T04:40:16.098Z,14.12
2018-06-15T04:42:45.154Z,14.13
2018-06-15T04:45:14.192Z,14.13
2018-06-15T04:47:44.971Z,14.13
2018-06-15T04:50:16.061Z,14.14
2018-06-15T04:52:47.379Z,14.17
2018-06-15T04:55:19.677Z,14.22
2018-06-15T04:57:48.554Z,14.24
2018-06-15T05:00:17.358Z,14.30
2018-06-15T05:02:46.351Z,14.34
2018-06-15T05:05:16.643Z,14.38
2018-06-15T05:07:47.524Z,14.42
2018-06-15T05:10:20.563Z,14.45
2018-06-15T05:12:52.600Z,14.48
2018-06-15T05:15:21.453Z,14.51
2018-06-15T05:17:50.344Z,14.52
2018-06-15T05:20:19.468Z,14.56
2018-06-15T05:22:51.851Z,14.61
2018-06-15T05:25:25.877Z,14.63
2018-06-15T05:27:57.143Z,14.65
2018-06-15T05:30:27.419Z,14.70
2018-06-15T05:33:00.381Z,14.72
2018-06-15T05:35:32.062Z,14.75
2018-06-15T05:38:00.990Z,14.79
2018-06-15T05:40:29.869Z,14.83
2018-06-15T05:42:58.710Z,14.85
2018-06-15T05:45:29.170Z,14.84
2018-06-15T05:47:59.469Z,14.90
2018-06-15T05:50:31.481Z,14.93
2018-06-15T05:53:01.660Z,14.93
2018-06-15T05:55:32.919Z,14.99
2018-06-15T05:58:05.264Z,15.01
2018-06-15T06:00:34.066Z,15.04
2018-06-15T06:03:02.906Z,15.07
2018-06-15T06:05:31.873Z,15.11
2018-06-15T06:08:03.644Z,15.14
2018-06-15T06:10:35.971Z,15.15
2018-06-15T06:13:12.623Z,15.21
2018-06-15T06:21:20.360Z,15.19
2018-06-15T06:23:49.382Z,15.25
2018-06-15T06:26:18.374Z,15.26
2018-06-15T06:28:47.311Z,15.28
2018-06-15T06:31:17.088Z,15.29
2018-06-15T06:33:52.277Z,15.25
2018-06-15T06:39:17.172Z,15.35
2018-06-15T06:41:48.479Z,15.41
2018-06-15T06:44:22.951Z,15.45
2018-06-15T06:47:00.487Z,15.45
2018-06-15T06:52:15.407Z,15.55
2018-06-15T06:54:51.281Z,15.55
2018-06-15T06:57:27.954Z,15.56
2018-06-15T07:00:05.211Z,15.59
2018-06-15T07:02:39.310Z,15.63
2018-06-15T07:24:02.536Z,16.12
2018-06-15T07:26:52.226Z,16.22
2018-06-15T07:42:01.351Z,16.21
2018-06-15T07:44:44.539Z,16.14
2018-06-15T08:05:47.665Z,16.01
2018-06-15T08:08:20.515Z,16.08
2018-06-15T08:11:01.387Z,16.16
2018-06-15T08:13:32.755Z,16.21
2018-06-15T08:49:56.773Z,17.08
2018-06-15T11:08:12.380Z,19.34
2018-06-15T11:10:41.465Z,19.38
2018-06-15T11:13:10.622Z,19.44
2018-06-15T13:12:32.554Z,19.44
2018-06-15T13:15:02.835Z,19.34
2018-06-15T13:17:33.508Z,19.33
2018-06-15T13:53:44.194Z,21.49
2018-06-15T13:56:24.568Z,21.54
2018-06-15T14:20:33.652Z,21.42
2018-06-15T14:23:04.144Z,21.46
2018-06-15T14:25:34.053Z,21.46
2018-06-15T14:52:30.492Z,21.86
2018-06-15T14:55:02.215Z,21.84
2018-06-15T14:57:34.216Z,22.00
2018-06-15T15:18:23.030Z,22.09
2018-06-15T15:20:55.585Z,21.93
2018-06-15T15:23:26.090Z,21.79
2018-06-15T15:56:14.250Z,21.49
2018-06-15T15:58:43.286Z,21.35
2018-06-15T16:01:12.471Z,21.21
2018-06-15T16:03:44.639Z,21.00
2018-06-15T16:06:16.829Z,20.86
2018-06-15T16:08:48.301Z,20.69
2018-06-15T16:11:23.586Z,20.55
2018-06-15T16:13:54.248Z,20.40
2018-06-15T16:16:23.834Z,20.28
2018-06-15T16:18:55.420Z,20.24
2018-06-15T16:21:24.467Z,20.31
2018-06-15T16:24:04.004Z,20.37
2018-06-15T16:34:53.220Z,20.14
2018-06-15T16:37:22.237Z,20.11
2018-06-15T16:39:52.148Z,20.12
2018-06-15T16:42:21.349Z,20.05
2018-06-15T16:44:50.373Z,20.00
2018-06-15T16:47:21.685Z,19.97
2018-06-15T16:50:03.975Z,19.85
2018-06-15T16:58:11.242Z,19.52
2018-06-15T17:00:40.245Z,19.35
2018-06-15T17:03:09.343Z,19.22
2018-06-15T17:05:45.935Z,19.21
2018-06-15T17:25:47.471Z,21.54
2018-06-15T17:28:16.594Z,21.90
2018-06-15T17:30:46.075Z,22.20
2018-06-15T17:42:26.610Z,22.70
2018-06-15T17:44:55.678Z,22.81
2018-06-15T17:47:24.790Z,22.75
2018-06-15T17:49:57.722Z,22.51
2018-06-15T18:13:55.520Z,20.46
2018-06-15T18:16:24.702Z,20.28
2018-06-15T18:18:53.755Z,20.13
2018-06-15T18:45:46.380Z,18.45
2018-06-15T18:48:15.978Z,18.27
2018-06-15T18:50:45.257Z,18.18
2018-06-15T19:11:32.739Z,17.13
2018-06-15T19:14:01.789Z,17.05
2018-06-15T19:16:32.320Z,16.99
2018-06-15T19:34:15.355Z,16.64
2018-06-15T19:36:44.454Z,16.58
2018-06-15T19:39:13.565Z,16.51
2018-06-15T20:03:03.252Z,16.16
2018-06-15T20:05:33.339Z,16.12
2018-06-15T20:08:02.621Z,16.08
2018-06-15T20:28:57.094Z,15.87
2018-06-15T20:31:26.326Z,15.83
2018-06-15T20:34:12.606Z,15.81
2018-06-15T20:51:55.729Z,15.72
2018-06-15T20:54:24.835Z,15.70
2018-06-15T20:56:54.032Z,15.68
2018-06-15T21:14:36.867Z,15.55
2018-06-15T21:17:05.907Z,15.55
2018-06-15T21:19:35.068Z,15.53
2018-06-15T21:34:15.191Z,15.47
2018-06-15T21:36:44.390Z,15.42
2018-06-15T21:39:13.382Z,15.39
2018-06-15T21:56:54.130Z,15.37
2018-06-15T21:59:23.087Z,15.35
2018-06-15T22:01:52.329Z,15.35
2018-06-15T22:22:39.585Z,15.27
2018-06-15T22:25:08.668Z,15.25
2018-06-15T22:27:37.766Z,15.24
2018-06-15T22:42:18.590Z,15.26
2018-06-15T22:44:47.497Z,15.26
2018-06-15T22:47:16.508Z,15.21
2018-06-15T22:49:47.153Z,15.26
2018-06-15T23:13:37.296Z,15.21
2018-06-15T23:16:06.311Z,15.23
2018-06-15T23:18:35.420Z,15.25
2018-06-15T23:33:28.847Z,15.14
2018-06-15T23:35:57.879Z,15.11
2018-06-15T23:38:26.773Z,15.05
2018-06-15T23:55:41.703Z,15.09
2018-06-15T23:58:10.786Z,15.08
